Time;durP1;ratioP1;P1;durP2;ratioP2;P2;SDS_P1;SDS_P2;PMS_P1;PMS_P2;Temp;Humidity;BMP_temperature;BMP_pressure;BME280_temperature;BME280_humidity;BME280_pressure;Samples;Min_cycle;Max_cycle;Signal;HPM_P1;HPM_P2
2024/04/02 05:01:59;;;;;;;;;;;;;;;12.96;100.00;98909.26;1859447;76;20147;-70
2024/04/02 05:04:29;;;;;;;;;;;;;;;12.98;100.00;98907.83;1815727;78;20521;-70
2024/04/02 05:06:55;;;;;;;;;;;;;;;13.07;100.00;98910.98;1809666;77;20184;-70
2024/04/02 05:09:22;;;;;;;;;;;;;;;13.18;100.00;98913.55;1814156;77;20142;-74
2024/04/02 05:11:49;;;;;;;;;;;;;;;13.32;100.00;98924.95;1817679;77;20370;-71
2024/04/02 05:14:15;;;;;;;;;;;;;;;13.46;100.00;98917.73;1815566;78;20141;-71
2024/04/02 05:16:42;;;;;;;;;;;;;;;13.64;100.00;98914.34;1812586;78;20201;-70
2024/04/02 05:19:13;;;;;;;;;;;;;;;13.83;100.00;98913.58;1800129;77;21103;-71
2024/04/02 05:21:46;;;;;;;;;;;;;;;14.00;100.00;98906.36;1829114;78;20144;-70
2024/04/02 05:24:13;;;;;;;;;;;;;;;14.20;100.00;98905.92;1816987;78;20125;-73
2024/04/02 05:26:39;;;;;;;;;;;;;;;14.38;100.00;98916.56;1814923;78;20111;-74
2024/04/02 05:29:06;;;;;;;;;;;;;;;14.54;100.00;98911.61;1815315;77;20139;-72
2024/04/02 05:31:37;;;;;;;;;;;;;;;14.66;100.00;98909.68;1810460;77;20189;-76
2024/04/02 05:34:04;;;;;;;;;;;;;;;14.74;100.00;98911.13;1809071;78;20200;-78
2024/04/02 05:36:30;;;;;;;;;;;;;;;14.81;100.00;98906.95;1815415;77;20166;-72
2024/04/02 05:38:56;;;;;;;;;;;;;;;14.89;100.00;98905.77;1813417;78;20087;-71
2024/04/02 05:41:23;;;;;;;;;;;;;;;14.97;100.00;98890.17;1812060;77;20564;-72
2024/04/02 05:43:49;;;;;;;;;;;;;;;15.04;100.00;98892.23;1814537;77;20082;-72
2024/04/02 05:46:22;;;;;;;;;;;;;;;15.07;100.00;98890.16;1827772;78;20144;-73
2024/04/02 05:48:49;;;;;;;;;;;;;;;15.13;100.00;98889.59;1825349;78;20106;-72
2024/04/02 05:51:15;;;;;;;;;;;;;;;15.21;100.00;98888.36;1830564;78;20439;-72
2024/04/02 05:53:44;;;;;;;;;;;;;;;15.30;100.00;98876.19;1817268;77;20121;-73
2024/04/02 05:56:13;;;;;;;;;;;;;;;15.39;100.00;98872.70;1830365;78;20174;-72
2024/04/02 05:58:39;;;;;;;;;;;;;;;15.51;100.00;98872.05;1825494;77;20178;-74
2024/04/02 06:01:06;;;;;;;;;;;;;;;15.61;100.00;98872.34;1824021;77;20145;-73
2024/04/02 06:03:33;;;;;;;;;;;;;;;15.69;100.00;98872.92;1811815;78;20102;-72
2024/04/02 06:05:59;;;;;;;;;;;;;;;15.75;100.00;98864.47;1800107;78;20156;-71
2024/04/02 06:08:26;;;;;;;;;;;;;;;15.84;100.00;98871.47;1799455;78;20125;-71
2024/04/02 06:10:52;;;;;;;;;;;;;;;15.96;100.00;98861.10;1817270;78;20121;-72
2024/04/02 06:13:19;;;;;;;;;;;;;;;16.19;100.00;98860.16;1792949;78;20382;-71
2024/04/02 06:15:45;;;;;;;;;;;;;;;16.44;100.00;98854.61;1815572;78;20433;-71
2024/04/02 06:18:12;;;;;;;;;;;;;;;16.69;100.00;98848.28;1808548;78;20126;-70
2024/04/02 06:20:38;;;;;;;;;;;;;;;16.93;100.00;98845.79;1813090;77;20152;-72
2024/04/02 06:23:04;;;;;;;;;;;;;;;17.09;100.00;98843.75;1824719;78;20727;-75
2024/04/02 06:25:31;;;;;;;;;;;;;;;17.09;100.00;98843.27;1804152;78;20188;-73
2024/04/02 06:27:57;;;;;;;;;;;;;;;17.03;100.00;98841.25;1808824;78;20419;-73
2024/04/02 06:30:23;;;;;;;;;;;;;;;17.03;100.00;98829.42;1804667;78;20119;-71
2024/04/02 06:32:53;;;;;;;;;;;;;;;17.10;100.00;98830.94;1816576;78;20243;-73
2024/04/02 06:35:20;;;;;;;;;;;;;;;17.22;100.00;98834.92;1815019;78;20098;-73
2024/04/02 06:37:46;;;;;;;;;;;;;;;17.27;100.00;98822.95;1773463;78;20283;-72
2024/04/02 06:40:13;;;;;;;;;;;;;;;17.36;100.00;98814.60;1800490;78;20419;-73
2024/04/02 06:42:40;;;;;;;;;;;;;;;17.44;100.00;98821.22;1825338;78;20107;-77
2024/04/02 06:45:06;;;;;;;;;;;;;;;17.48;100.00;98821.72;1815357;78;20102;-75
2024/04/02 06:47:34;;;;;;;;;;;;;;;17.56;100.00;98833.60;1811372;78;20137;-74
2024/04/02 06:50:00;;;;;;;;;;;;;;;17.71;100.00;98838.59;1811720;78;20219;-70
2024/04/02 06:52:28;;;;;;;;;;;;;;;17.89;100.00;98844.58;1807570;78;20389;-73
2024/04/02 06:54:55;;;;;;;;;;;;;;;18.04;100.00;98848.70;1814729;78;20188;-72
2024/04/02 06:57:22;;;;;;;;;;;;;;;18.16;100.00;98847.41;1813574;78;20389;-71
2024/04/02 06:59:48;;;;;;;;;;;;;;;18.23;100.00;98829.13;1816103;78;20113;-71
2024/04/02 07:02:14;;;;;;;;;;;;;;;18.24;99.55;98818.43;1810201;78;20129;-70
2024/04/02 07:04:41;;;;;;;;;;;;;;;18.27;98.61;98817.28;1804414;78;20291;-70
2024/04/02 07:07:07;;;;;;;;;;;;;;;18.31;98.54;98811.52;1812653;78;20166;-73
2024/04/02 07:09:34;;;;;;;;;;;;;;;18.42;97.37;98805.06;1812059;78;20388;-71
2024/04/02 07:12:00;;;;;;;;;;;;;;;18.62;97.60;98800.31;1812246;78;20434;-74
2024/04/02 07:14:27;;;;;;;;;;;;;;;18.90;96.81;98790.19;1804211;78;20142;-72
2024/04/02 07:16:55;;;;;;;;;;;;;;;19.08;94.40;98790.80;1806977;78;20109;-74
2024/04/02 07:19:23;;;;;;;;;;;;;;;19.12;91.90;98784.69;1811311;78;20121;-75
2024/04/02 07:21:51;;;;;;;;;;;;;;;19.03;93.15;98788.34;1811495;78;20106;-73
2024/04/02 07:24:17;;;;;;;;;;;;;;;18.99;93.50;98780.77;1811492;78;20134;-73
2024/04/02 07:26:43;;;;;;;;;;;;;;;19.06;93.31;98780.91;1815685;78;20146;-72
2024/04/02 07:29:10;;;;;;;;;;;;;;;19.27;92.59;98785.09;1812722;78;20131;-73
2024/04/02 07:31:41;;;;;;;;;;;;;;;19.50;90.24;98779.06;1812783;78;20153;-73
2024/04/02 07:34:06;;;;;;;;;;;;;;;19.69;88.18;98775.17;1810115;77;20103;-72
2024/04/02 07:36:33;;;;;;;;;;;;;;;19.84;87.01;98762.86;1806376;78;20159;-73
2024/04/02 07:39:01;;;;;;;;;;;;;;;19.91;86.63;98753.23;1820673;78;20105;-73
2024/04/02 07:41:29;;;;;;;;;;;;;;;19.98;85.10;98759.47;1809125;78;20478;-74
2024/04/02 07:43:55;;;;;;;;;;;;;;;19.98;84.54;98756.83;1811150;78;20639;-75
2024/04/02 07:46:22;;;;;;;;;;;;;;;20.10;84.14;98745.31;1816313;78;20084;-78
2024/04/02 07:48:48;;;;;;;;;;;;;;;20.35;83.14;98741.47;1814015;78;20277;-72
2024/04/02 07:51:19;;;;;;;;;;;;;;;20.43;81.96;98724.20;1814581;78;20169;-74
2024/04/02 07:53:48;;;;;;;;;;;;;;;20.37;81.00;98726.24;1816092;78;20098;-75
2024/04/02 07:56:17;;;;;;;;;;;;;;;20.24;82.26;98724.70;1828008;78;20158;-77
2024/04/02 07:58:47;;;;;;;;;;;;;;;20.22;82.94;98712.99;1807394;78;20167;-79
2024/04/02 08:01:14;;;;;;;;;;;;;;;20.31;83.21;98719.03;1809605;78;20110;-82
2024/04/02 08:03:42;;;;;;;;;;;;;;;20.48;82.36;98712.59;1790831;79;20149;-82
2024/04/02 08:06:10;;;;;;;;;;;;;;;20.64;81.33;98707.13;1805884;79;20105;-75
2024/04/02 08:08:37;;;;;;;;;;;;;;;20.74;81.70;98707.37;1798608;79;20105;-76
2024/04/02 08:11:04;;;;;;;;;;;;;;;20.89;79.51;98715.59;1810213;79;20100;-73
2024/04/02 08:13:31;;;;;;;;;;;;;;;21.01;79.81;98705.37;1810062;77;20119;-73
2024/04/02 08:15:57;;;;;;;;;;;;;;;21.12;79.82;98693.48;1805483;79;20138;-83
2024/04/02 08:18:24;;;;;;;;;;;;;;;21.12;78.86;98687.70;1804566;79;20104;-74
2024/04/02 08:20:51;;;;;;;;;;;;;;;21.14;78.29;98687.51;1767315;80;20173;-74
2024/04/02 08:23:17;;;;;;;;;;;;;;;21.19;77.25;98677.97;1758879;80;20100;-81
2024/04/02 08:25:47;;;;;;;;;;;;;;;21.25;75.55;98670.64;1756957;81;20413;-75
2024/04/02 08:28:14;;;;;;;;;;;;;;;21.31;74.51;98665.11;1756195;80;20256;-74
2024/04/02 08:30:41;;;;;;;;;;;;;;;21.41;73.13;98664.80;1760352;80;20115;-74
2024/04/02 08:33:07;;;;;;;;;;;;;;;21.41;72.86;98659.50;1757245;80;20420;-74
2024/04/02 08:35:34;;;;;;;;;;;;;;;21.48;71.88;98660.39;1761830;80;20173;-74
2024/04/02 08:38:00;;;;;;;;;;;;;;;21.50;70.25;98657.88;1763276;80;20140;-75
2024/04/02 08:40:37;;;;;;;;;;;;;;;21.46;70.80;98654.47;1753156;80;20152;-77
2024/04/02 08:43:06;;;;;;;;;;;;;;;21.49;71.45;98653.59;1755166;81;20385;-72
2024/04/02 08:45:37;;;;;;;;;;;;;;;21.60;71.42;98656.20;1728748;81;20107;-74
2024/04/02 08:48:04;;;;;;;;;;;;;;;21.78;71.96;98649.14;1757637;81;20131;-77
2024/04/02 08:50:31;;;;;;;;;;;;;;;21.96;68.79;98651.65;1756311;81;20123;-73
2024/04/02 08:53:01;;;;;;;;;;;;;;;22.16;68.12;98635.08;1758974;81;20111;-73
2024/04/02 08:55:27;;;;;;;;;;;;;;;22.30;67.02;98639.46;1748122;81;20091;-71
2024/04/02 08:57:54;;;;;;;;;;;;;;;22.38;64.34;98627.88;1749175;81;20166;-72
2024/04/02 09:00:20;;;;;;;;;;;;;;;22.40;61.14;98619.19;1755122;80;20158;-72
2024/04/02 09:02:47;;;;;;;;;;;;;;;22.47;61.31;98618.22;1758616;80;20165;-72
2024/04/02 09:05:13;;;;;;;;;;;;;;;22.57;61.47;98606.73;1754738;80;20141;-75
2024/04/02 09:07:43;;;;;;;;;;;;;;;22.64;59.56;98604.12;1772672;80;20430;-72
2024/04/02 09:10:12;;;;;;;;;;;;;;;22.58;59.74;98596.95;1758129;80;20192;-72
2024/04/02 09:12:38;;;;;;;;;;;;;;;22.54;58.38;98583.77;1763950;80;20333;-69
2024/04/02 09:15:05;;;;;;;;;;;;;;;22.55;58.47;98585.41;1765070;80;20109;-71
2024/04/02 09:17:32;;;;;;;;;;;;;;;22.59;58.05;98572.05;1764187;80;20096;-73
2024/04/02 09:19:59;;;;;;;;;;;;;;;22.67;58.42;98565.76;1761586;80;20436;-72
2024/04/02 09:22:25;;;;;;;;;;;;;;;22.67;57.96;98557.80;1764581;80;20099;-77
2024/04/02 09:24:52;;;;;;;;;;;;;;;22.66;57.55;98560.96;1762239;81;20153;-74
2024/04/02 09:27:20;;;;;;;;;;;;;;;22.60;57.55;98547.16;1774730;80;20096;-72
2024/04/02 09:29:48;;;;;;;;;;;;;;;22.56;57.83;98546.73;1769659;80;20122;-75
2024/04/02 09:32:17;;;;;;;;;;;;;;;22.54;58.54;98545.30;1761345;80;20447;-73
2024/04/02 09:34:45;;;;;;;;;;;;;;;22.52;58.26;98534.88;1759464;80;20598;-73
2024/04/02 09:37:37;;;;;;;;;;;;;;;22.54;57.69;98530.20;1770860;80;20203;-73
2024/04/02 09:40:04;;;;;;;;;;;;;;;22.55;58.53;98517.25;1760706;80;20158;-72
2024/04/02 09:42:32;;;;;;;;;;;;;;;22.54;57.75;98516.12;1761062;80;20100;-72
2024/04/02 09:45:00;;;;;;;;;;;;;;;22.54;58.60;98529.37;1767341;80;20112;-76
2024/04/02 09:47:29;;;;;;;;;;;;;;;22.54;58.42;98511.62;1766072;80;20096;-74
2024/04/02 09:49:56;;;;;;;;;;;;;;;22.55;58.03;98515.10;1750632;82;20123;-75
2024/04/02 09:52:24;;;;;;;;;;;;;;;22.50;58.98;98499.78;1753991;81;20168;-72
2024/04/02 09:54:50;;;;;;;;;;;;;;;22.50;59.83;98500.28;1757060;81;20091;-75
2024/04/02 09:57:16;;;;;;;;;;;;;;;22.52;60.04;98500.91;1756238;81;20126;-74
2024/04/02 09:59:43;;;;;;;;;;;;;;;22.51;60.02;98494.78;1749333;81;20886;-74
2024/04/02 10:02:15;;;;;;;;;;;;;;;22.55;60.04;98485.41;1752011;80;20106;-75
2024/04/02 10:04:56;;;;;;;;;;;;;;;22.62;60.04;98486.76;1748543;81;20126;-76
2024/04/02 10:07:32;;;;;;;;;;;;;;;22.71;59.01;98490.05;1743910;81;20377;-73
2024/04/02 10:10:05;;;;;;;;;;;;;;;22.77;57.46;98482.10;1718385;82;20422;-72
2024/04/02 10:12:33;;;;;;;;;;;;;;;22.80;58.53;98472.92;1714928;83;20135;-72
2024/04/02 10:15:10;;;;;;;;;;;;;;;22.85;59.10;98470.48;1767318;81;20102;-77
2024/04/02 10:17:36;;;;;;;;;;;;;;;22.91;56.16;98471.82;1771012;81;20127;-72
2024/04/02 10:20:17;;;;;;;;;;;;;;;22.98;55.53;98474.48;1764635;81;20138;-73
2024/04/02 10:22:43;;;;;;;;;;;;;;;23.06;57.66;98465.00;1762742;81;20169;-72
2024/04/02 10:25:11;;;;;;;;;;;;;;;23.13;57.63;98459.19;1755991;81;20448;-71
2024/04/02 10:27:39;;;;;;;;;;;;;;;23.18;55.43;98450.09;1752557;81;20151;-70
2024/04/02 10:30:20;;;;;;;;;;;;;;;23.25;56.20;98440.77;1740877;81;20140;-73
2024/04/02 10:32:46;;;;;;;;;;;;;;;23.29;56.00;98433.52;1766929;81;20143;-72
2024/04/02 10:35:23;;;;;;;;;;;;;;;23.31;56.03;98423.20;1752246;81;20158;-70
2024/04/02 10:37:51;;;;;;;;;;;;;;;23.30;56.30;98413.08;1750013;81;20146;-75
2024/04/02 10:40:18;;;;;;;;;;;;;;;23.32;55.56;98386.31;1757677;81;20124;-76
2024/04/02 10:42:46;;;;;;;;;;;;;;;23.32;55.64;98395.61;1758515;81;20120;-72
2024/04/02 10:45:24;;;;;;;;;;;;;;;23.31;54.99;98390.00;1749586;81;20138;-73
2024/04/02 10:47:57;;;;;;;;;;;;;;;23.31;54.46;98368.75;1754359;81;20424;-71
2024/04/02 10:50:24;;;;;;;;;;;;;;;23.32;54.49;98371.70;1748391;81;20142;-77
2024/04/02 10:52:54;;;;;;;;;;;;;;;23.34;53.83;98363.84;1759416;81;20483;-72
2024/04/02 10:55:21;;;;;;;;;;;;;;;23.36;53.43;98359.64;1751689;81;20186;-71
2024/04/02 10:57:47;;;;;;;;;;;;;;;23.39;53.50;98356.06;1764935;81;20406;-74
2024/04/02 11:00:18;;;;;;;;;;;;;;;23.42;52.33;98345.02;1752560;81;20166;-75
2024/04/02 11:02:47;;;;;;;;;;;;;;;23.44;52.06;98341.64;1739581;79;20146;-76
2024/04/02 11:05:16;;;;;;;;;;;;;;;23.47;50.44;98327.13;1752400;79;20587;-79
2024/04/02 11:07:45;;;;;;;;;;;;;;;23.47;50.20;98317.83;1752320;79;20142;-74
2024/04/02 11:10:13;;;;;;;;;;;;;;;23.49;49.23;98321.09;1758273;79;20182;-77
2024/04/02 11:12:40;;;;;;;;;;;;;;;23.48;50.73;98312.31;1818183;79;20497;-74
2024/04/02 11:15:08;;;;;;;;;;;;;;;23.47;51.85;98308.53;1793688;79;20472;-71
2024/04/02 11:17:35;;;;;;;;;;;;;;;23.46;51.64;98304.24;1750379;79;20111;-70
2024/04/02 11:20:09;;;;;;;;;;;;;;;23.45;51.14;98303.94;1756346;79;20423;-77
2024/04/02 11:25:19;;;;;;;;;;;;;;;23.45;50.89;98290.14;1752483;79;20095;-75
2024/04/02 11:27:45;;;;;;;;;;;;;;;23.48;50.40;98289.73;1789913;79;20087;-73
2024/04/02 11:30:15;;;;;;;;;;;;;;;23.52;50.05;98300.23;1778844;80;20175;-73
2024/04/02 11:32:41;;;;;;;;;;;;;;;23.58;49.80;98302.59;1763648;79;20161;-73
2024/04/02 11:35:15;;;;;;;;;;;;;;;23.66;50.66;98301.00;1757801;79;20172;-70
2024/04/02 11:37:43;;;;;;;;;;;;;;;23.73;50.81;98299.13;1771875;79;20211;-73
2024/04/02 11:40:13;;;;;;;;;;;;;;;23.83;50.49;98301.34;1753228;79;20095;-74
2024/04/02 11:42:39;;;;;;;;;;;;;;;23.91;48.68;98295.27;1751965;79;20262;-74
2024/04/02 11:45:06;;;;;;;;;;;;;;;23.97;48.57;98292.78;1756715;79;20390;-72
2024/04/02 11:47:34;;;;;;;;;;;;;;;23.98;48.57;98289.09;1768901;79;20412;-73
2024/04/02 11:50:01;;;;;;;;;;;;;;;23.96;48.73;98283.17;1750846;79;20178;-74
2024/04/02 11:52:29;;;;;;;;;;;;;;;23.91;48.06;98291.27;1755151;79;20162;-76
2024/04/02 11:54:56;;;;;;;;;;;;;;;23.90;47.61;98283.51;1803029;79;20165;-73
2024/04/02 12:00:16;;;;;;;;;;;;;;;23.92;48.52;98261.52;1749491;79;20192;-72
2024/04/02 12:02:45;;;;;;;;;;;;;;;23.96;48.42;98268.55;1752520;81;20158;-78
2024/04/02 12:05:13;;;;;;;;;;;;;;;23.98;49.38;98271.81;1748694;79;20456;-71
2024/04/02 12:07:44;;;;;;;;;;;;;;;23.99;49.03;98250.33;1742769;79;20203;-74
2024/04/02 12:10:16;;;;;;;;;;;;;;;23.98;49.72;98247.88;1742237;79;20150;-77
2024/04/02 12:12:43;;;;;;;;;;;;;;;23.95;49.91;98249.13;1740711;79;20138;-77
2024/04/02 12:15:09;;;;;;;;;;;;;;;23.88;50.08;98230.55;1751068;79;20201;-75
2024/04/02 12:17:36;;;;;;;;;;;;;;;23.82;50.41;98231.41;1738700;79;20241;-72
2024/04/02 12:20:03;;;;;;;;;;;;;;;23.74;51.37;98219.70;1740696;79;20135;-72
2024/04/02 12:22:30;;;;;;;;;;;;;;;23.70;51.58;98219.02;1780181;79;20118;-72
2024/04/02 12:24:56;;;;;;;;;;;;;;;23.68;51.87;98213.91;1774665;79;20131;-74
2024/04/02 12:27:23;;;;;;;;;;;;;;;23.68;52.09;98201.95;1752482;79;20094;-76
2024/04/02 12:29:55;;;;;;;;;;;;;;;23.66;52.04;98200.02;1747050;79;20402;-74
2024/04/02 12:32:28;;;;;;;;;;;;;;;23.65;51.46;98194.92;1769741;79;20130;-76
2024/04/02 12:34:55;;;;;;;;;;;;;;;23.64;51.29;98198.09;1773499;79;20131;-76
2024/04/02 12:37:21;;;;;;;;;;;;;;;23.63;51.07;98191.15;1778869;79;20095;-73
2024/04/02 12:39:47;;;;;;;;;;;;;;;23.60;50.95;98172.98;1791863;79;20164;-71
2024/04/02 12:42:22;;;;;;;;;;;;;;;23.57;51.29;98179.56;1741724;79;20242;-74
2024/04/02 12:44:48;;;;;;;;;;;;;;;23.53;51.91;98174.89;1754097;79;20132;-75
2024/04/02 12:47:15;;;;;;;;;;;;;;;23.54;51.98;98176.52;1771987;79;20124;-74
2024/04/02 12:49:42;;;;;;;;;;;;;;;23.53;52.57;98171.72;1748219;79;20167;-74
2024/04/02 12:52:09;;;;;;;;;;;;;;;23.54;52.18;98168.55;1799988;79;20188;-73
2024/04/02 12:54:36;;;;;;;;;;;;;;;23.53;52.17;98150.46;1745713;79;20143;-74
2024/04/02 12:57:05;;;;;;;;;;;;;;;23.49;52.41;98149.74;1754194;79;20124;-74
2024/04/02 12:59:31;;;;;;;;;;;;;;;23.47;53.04;98150.47;1748753;79;20413;-73
2024/04/02 13:01:59;;;;;;;;;;;;;;;23.45;53.35;98136.59;1778278;79;20144;-75
2024/04/02 13:04:26;;;;;;;;;;;;;;;23.42;53.55;98135.17;1752963;79;20174;-77
2024/04/02 13:06:54;;;;;;;;;;;;;;;23.39;54.07;98119.66;1740429;79;20135;-75
2024/04/02 13:09:38;;;;;;;;;;;;;;;23.39;54.78;98124.97;1738138;80;20119;-76
2024/04/02 13:12:32;;;;;;;;;;;;;;;23.41;55.00;98115.46;1763026;79;20117;-75
2024/04/02 13:15:38;;;;;;;;;;;;;;;;;;;;;
2024/04/02 13:18:16;;;;;;;;;;;;;;;23.40;54.91;98099.22;1712297;82;20141;-75
2024/04/02 13:20:43;;;;;;;;;;;;;;;23.40;55.56;98088.09;1796437;79;20114;-80
2024/04/02 13:23:11;;;;;;;;;;;;;;;23.41;55.38;98082.26;1758720;79;20119;-77
2024/04/02 13:25:41;;;;;;;;;;;;;;;23.41;55.37;98076.95;1749088;79;20115;-75
2024/04/02 13:28:07;;;;;;;;;;;;;;;23.42;55.58;98085.22;1762241;79;20123;-76
2024/04/02 13:30:36;;;;;;;;;;;;;;;23.41;56.31;98069.79;1756442;79;20417;-76
2024/04/02 13:33:06;;;;;;;;;;;;;;;23.44;56.53;98063.23;1756248;79;20124;-74
2024/04/02 13:35:43;;;;;;;;;;;;;;;23.45;56.19;98068.34;1750802;79;20401;-74
2024/04/02 13:38:28;;;;;;;;;;;;;;;23.45;56.06;98058.22;1750395;79;20138;-82
2024/04/02 13:41:00;;;;;;;;;;;;;;;23.46;56.81;98058.52;1743692;79;20144;-74
2024/04/02 13:43:30;;;;;;;;;;;;;;;23.46;57.62;98061.18;1775525;79;20165;-76
2024/04/02 13:46:01;;;;;;;;;;;;;;;23.45;57.17;98060.88;1766170;79;20105;-77
2024/04/02 13:48:29;;;;;;;;;;;;;;;23.43;57.15;98058.95;1754055;79;20106;-78
2024/04/02 13:51:12;;;;;;;;;;;;;;;23.41;57.60;98061.01;1747354;79;20123;-74
2024/04/02 13:53:44;;;;;;;;;;;;;;;23.40;57.97;98056.72;1753950;79;20107;-73
2024/04/02 13:56:13;;;;;;;;;;;;;;;23.38;57.81;98053.47;1750789;79;20155;-76
2024/04/02 13:58:40;;;;;;;;;;;;;;;23.38;57.60;98054.80;1753011;79;20095;-75
2024/04/02 14:01:07;;;;;;;;;;;;;;;23.36;57.73;98041.73;1746442;79;20155;-80
2024/04/02 14:03:36;;;;;;;;;;;;;;;23.36;57.51;98030.30;1745038;79;20441;-78
2024/04/02 14:06:06;;;;;;;;;;;;;;;23.33;57.87;98017.45;1777372;79;20510;-75
2024/04/02 14:08:35;;;;;;;;;;;;;;;23.30;58.27;98008.06;1813503;79;20424;-76
